This is the latest recevied weather packets stored in our database for station/object VE3GIF. If no packets are shown the sender has not sent any weather packets the latest 1 day(s).
| Time | Temp. | Humidity | Pressure | Rain* | Wind** | Luminosity | Snow |
|---|---|---|---|---|---|---|---|
| 1836274600 | 15° C | 65% | 1021.8 hPa | 0 mm | 0 m/s | - | - |
| 1836274300 | 15° C | 65% | 1021.8 hPa | 0 mm | 0.89 m/s, 5° | - | - |
| 1836274000 | 15.56° C | 66% | 1021.8 hPa | 0 mm | 0.45 m/s, 5° | - | - |
| 1778052159 | 6.67° C | 89% | 1007.6 hPa | 0 mm | 0.89 m/s, 130° | - | - |
| 1778051558 | 6.67° C | 89% | 1007.7 hPa | 0 mm | 2.24 m/s, 132° | - | - |
| 1778051258 | 6.67° C | 89% | 1007.6 hPa | 0 mm | 0.89 m/s, 146° | - | - |
| 1778050958 | 6.67° C | 89% | 1007.7 hPa | 0 mm | 2.24 m/s, 132° | - | - |
| 1778050657 | 7.22° C | 89% | 1007.6 hPa | 0 mm | 0.89 m/s, 132° | - | - |
| 1778050357 | 7.22° C | 89% | 1007.6 hPa | 0 mm | 0.45 m/s, 121° | - | - |
| 1778050057 | 7.22° C | 89% | 1007.7 hPa | 0 mm | 1.34 m/s, 138° | - | - |
| 1778048856 | 7.78° C | 88% | 1008 hPa | 0 mm | 0.45 m/s, 86° | - | - |
| 1778048555 | 7.78° C | 89% | 1008.1 hPa | 0 mm | 3.13 m/s, 114° | - | - |
| 1778048255 | 7.78° C | 89% | 1008.3 hPa | 0 mm | 0 m/s | - | - |
| 1778047955 | 7.78° C | 89% | 1008.2 hPa | 0 mm | 0.45 m/s, 104° | - | - |
| 1778047655 | 8.33° C | 88% | 1008.4 hPa | 0 mm | 0.45 m/s, 111° | - | - |
| 1778047354 | 8.33° C | 88% | 1008.4 hPa | 0 mm | 0 m/s | - | - |
| 1778047054 | 8.33° C | 88% | 1008.5 hPa | 0 mm | 0.45 m/s, 98° | - | - |
| 1778046754 | 8.33° C | 88% | 1008.6 hPa | 0 mm | 0.45 m/s, 86° | - | - |
| 1778046153 | 8.33° C | 88% | 1008.7 hPa | 0 mm | 0 m/s | - | - |
| 1778045252 | 8.33° C | 88% | 1008.9 hPa | 0 mm | 0 m/s | - | - |
| 1778044952 | 8.33° C | 88% | 1009 hPa | 0 mm | 1.34 m/s, 144° | - | - |
| 1778044652 | 8.33° C | 88% | 1009.1 hPa | 0 mm | 0 m/s | - | - |
| 1778044352 | 8.33° C | 88% | 1009 hPa | 0 mm | 0 m/s | - | - |
| 1778043751 | 7.78° C | 88% | 1008.7 hPa | 0 mm | 0.45 m/s, 138° | - | - |
| 1778043451 | 7.78° C | 87% | 1008.7 hPa | 0 mm | 0 m/s | - | - |
* Rain latest hour (hover to see other rain measurements)
** Current wind speed in m/s (hover to see current wind gust speed)